sensor_id;sensor_type;location;lat;lon;timestamp;pressure;altitude;pressure_sealevel;temperature;humidity
49979;BME280;35869;50.990;6.962;2022-10-16T00:04:49;100836.72;;;13.91;100.00
49979;BME280;35869;50.990;6.962;2022-10-16T00:09:50;100839.34;;;13.91;100.00
49979;BME280;35869;50.990;6.962;2022-10-16T00:14:50;100842.53;;;13.96;100.00
49979;BME280;35869;50.990;6.962;2022-10-16T00:19:50;100851.47;;;13.92;100.00
49979;BME280;35869;50.990;6.962;2022-10-16T00:24:51;100858.81;;;13.85;100.00
49979;BME280;35869;50.990;6.962;2022-10-16T00:29:52;100860.25;;;13.91;100.00
49979;BME280;35869;50.990;6.962;2022-10-16T00:34:52;100851.28;;;13.95;100.00
49979;BME280;35869;50.990;6.962;2022-10-16T00:39:52;100838.56;;;13.88;100.00
49979;BME280;35869;50.990;6.962;2022-10-16T00:44:55;100849.03;;;13.88;100.00
49979;BME280;35869;50.990;6.962;2022-10-16T00:50:11;100844.97;;;13.83;100.00
49979;BME280;35869;50.990;6.962;2022-10-16T00:55:13;100848.63;;;13.80;100.00
49979;BME280;35869;50.990;6.962;2022-10-16T01:00:19;100844.31;;;13.79;100.00
49979;BME280;35869;50.990;6.962;2022-10-16T01:05:22;100840.19;;;13.75;100.00
49979;BME280;35869;50.990;6.962;2022-10-16T01:10:46;100853.50;;;13.71;100.00
49979;BME280;35869;50.990;6.962;2022-10-16T01:21:05;100848.09;;;13.58;100.00
49979;BME280;35869;50.990;6.962;2022-10-16T01:31:27;100861.34;;;13.55;100.00
49979;BME280;35869;50.990;6.962;2022-10-16T01:36:35;100845.09;;;13.50;100.00
49979;BME280;35869;50.990;6.962;2022-10-16T01:41:41;100855.59;;;13.48;100.00
49979;BME280;35869;50.990;6.962;2022-10-16T01:46:46;100863.59;;;13.45;100.00
49979;BME280;35869;50.990;6.962;2022-10-16T01:51:52;100862.75;;;13.45;100.00
49979;BME280;35869;50.990;6.962;2022-10-16T01:56:56;100868.91;;;13.44;100.00
49979;BME280;35869;50.990;6.962;2022-10-16T02:02:00;100866.47;;;13.41;100.00
49979;BME280;35869;50.990;6.962;2022-10-16T02:07:01;100864.78;;;13.40;100.00
49979;BME280;35869;50.990;6.962;2022-10-16T02:12:08;100864.94;;;13.37;100.00
49979;BME280;35869;50.990;6.962;2022-10-16T02:17:16;100870.69;;;13.43;100.00
49979;BME280;35869;50.990;6.962;2022-10-16T02:27:25;100875.63;;;13.48;100.00
49979;BME280;35869;50.990;6.962;2022-10-16T02:32:30;100884.25;;;13.50;100.00
49979;BME280;35869;50.990;6.962;2022-10-16T02:37:32;100883.31;;;13.51;100.00
49979;BME280;35869;50.990;6.962;2022-10-16T02:42:34;100885.69;;;13.55;100.00
49979;BME280;35869;50.990;6.962;2022-10-16T02:47:35;100887.47;;;13.55;100.00
49979;BME280;35869;50.990;6.962;2022-10-16T02:52:35;100882.25;;;13.55;100.00
49979;BME280;35869;50.990;6.962;2022-10-16T02:57:36;100888.44;;;13.52;100.00
49979;BME280;35869;50.990;6.962;2022-10-16T03:02:36;100892.59;;;13.56;100.00
49979;BME280;35869;50.990;6.962;2022-10-16T03:07:36;100898.31;;;13.63;100.00
49979;BME280;35869;50.990;6.962;2022-10-16T03:12:36;100885.50;;;13.58;100.00
49979;BME280;35869;50.990;6.962;2022-10-16T03:17:37;100866.97;;;13.63;100.00
49979;BME280;35869;50.990;6.962;2022-10-16T03:22:37;100860.91;;;13.63;100.00
49979;BME280;35869;50.990;6.962;2022-10-16T03:27:37;100854.09;;;13.60;100.00
49979;BME280;35869;50.990;6.962;2022-10-16T03:32:37;100882.81;;;13.60;100.00
49979;BME280;35869;50.990;6.962;2022-10-16T03:37:38;100869.19;;;13.55;100.00
49979;BME280;35869;50.990;6.962;2022-10-16T03:42:38;100870.09;;;13.54;100.00
49979;BME280;35869;50.990;6.962;2022-10-16T03:47:38;100874.75;;;13.49;100.00
49979;BME280;35869;50.990;6.962;2022-10-16T03:52:38;100874.41;;;13.55;100.00
49979;BME280;35869;50.990;6.962;2022-10-16T03:57:38;100891.66;;;13.57;100.00
49979;BME280;35869;50.990;6.962;2022-10-16T04:02:39;100912.28;;;13.46;100.00
49979;BME280;35869;50.990;6.962;2022-10-16T04:07:39;100910.88;;;13.56;100.00
49979;BME280;35869;50.990;6.962;2022-10-16T04:12:40;100922.31;;;13.54;100.00
49979;BME280;35869;50.990;6.962;2022-10-16T04:17:40;100913.56;;;13.55;100.00
49979;BME280;35869;50.990;6.962;2022-10-16T04:22:40;100916.00;;;13.58;100.00
49979;BME280;35869;50.990;6.962;2022-10-16T04:27:40;100930.16;;;13.54;100.00
49979;BME280;35869;50.990;6.962;2022-10-16T04:32:41;100937.09;;;13.55;100.00
49979;BME280;35869;50.990;6.962;2022-10-16T04:37:41;100925.78;;;13.54;100.00
49979;BME280;35869;50.990;6.962;2022-10-16T04:42:41;100924.78;;;13.57;100.00
49979;BME280;35869;50.990;6.962;2022-10-16T04:47:42;100937.50;;;13.63;100.00
49979;BME280;35869;50.990;6.962;2022-10-16T04:52:42;100926.13;;;13.64;100.00
49979;BME280;35869;50.990;6.962;2022-10-16T04:57:42;100950.72;;;13.60;100.00
49979;BME280;35869;50.990;6.962;2022-10-16T05:02:42;100947.53;;;13.55;100.00
49979;BME280;35869;50.990;6.962;2022-10-16T05:07:42;100953.41;;;13.58;100.00
49979;BME280;35869;50.990;6.962;2022-10-16T05:12:43;100958.53;;;13.60;100.00
49979;BME280;35869;50.990;6.962;2022-10-16T05:17:43;100968.09;;;13.61;100.00
49979;BME280;35869;50.990;6.962;2022-10-16T05:22:44;100975.00;;;13.62;100.00
49979;BME280;35869;50.990;6.962;2022-10-16T05:27:47;100966.16;;;13.65;100.00
49979;BME280;35869;50.990;6.962;2022-10-16T05:32:48;100971.13;;;13.69;100.00
49979;BME280;35869;50.990;6.962;2022-10-16T05:37:49;100983.44;;;13.67;100.00
49979;BME280;35869;50.990;6.962;2022-10-16T05:42:49;101000.78;;;13.68;100.00
49979;BME280;35869;50.990;6.962;2022-10-16T05:47:49;100998.66;;;13.59;100.00
49979;BME280;35869;50.990;6.962;2022-10-16T05:52:49;100991.34;;;13.66;100.00
49979;BME280;35869;50.990;6.962;2022-10-16T05:57:50;100998.31;;;13.65;100.00
49979;BME280;35869;50.990;6.962;2022-10-16T06:02:50;101020.31;;;13.61;100.00
49979;BME280;35869;50.990;6.962;2022-10-16T06:07:50;101023.84;;;13.60;100.00
49979;BME280;35869;50.990;6.962;2022-10-16T06:12:50;101031.84;;;13.57;100.00
49979;BME280;35869;50.990;6.962;2022-10-16T06:17:50;101038.00;;;13.56;100.00
49979;BME280;35869;50.990;6.962;2022-10-16T06:22:51;101044.28;;;13.52;100.00
49979;BME280;35869;50.990;6.962;2022-10-16T06:27:51;101048.75;;;13.50;100.00
49979;BME280;35869;50.990;6.962;2022-10-16T06:32:51;101042.75;;;13.48;100.00
49979;BME280;35869;50.990;6.962;2022-10-16T06:37:54;101049.00;;;13.45;100.00
49979;BME280;35869;50.990;6.962;2022-10-16T06:42:55;101068.28;;;13.43;100.00
49979;BME280;35869;50.990;6.962;2022-10-16T06:47:55;101078.25;;;13.52;100.00
49979;BME280;35869;50.990;6.962;2022-10-16T06:52:55;101086.31;;;13.47;100.00
49979;BME280;35869;50.990;6.962;2022-10-16T06:57:56;101099.31;;;13.49;100.00
49979;BME280;35869;50.990;6.962;2022-10-16T07:02:56;101106.75;;;13.56;100.00
49979;BME280;35869;50.990;6.962;2022-10-16T07:07:56;101113.19;;;13.67;100.00
49979;BME280;35869;50.990;6.962;2022-10-16T07:12:56;101115.41;;;13.74;100.00
49979;BME280;35869;50.990;6.962;2022-10-16T07:17:57;101116.63;;;13.84;100.00
49979;BME280;35869;50.990;6.962;2022-10-16T07:22:57;101131.78;;;13.78;100.00
49979;BME280;35869;50.990;6.962;2022-10-16T07:27:57;101145.81;;;13.93;100.00
49979;BME280;35869;50.990;6.962;2022-10-16T07:32:57;101157.63;;;14.00;100.00
49979;BME280;35869;50.990;6.962;2022-10-16T07:37:58;101157.03;;;13.95;100.00
49979;BME280;35869;50.990;6.962;2022-10-16T07:42:58;101162.72;;;14.03;100.00
49979;BME280;35869;50.990;6.962;2022-10-16T07:47:58;101165.94;;;14.08;100.00
49979;BME280;35869;50.990;6.962;2022-10-16T07:52:58;101176.41;;;14.08;100.00
49979;BME280;35869;50.990;6.962;2022-10-16T07:57:59;101188.69;;;14.06;100.00
49979;BME280;35869;50.990;6.962;2022-10-16T08:02:59;101189.38;;;14.09;100.00
49979;BME280;35869;50.990;6.962;2022-10-16T08:08:01;101198.69;;;14.15;100.00
49979;BME280;35869;50.990;6.962;2022-10-16T08:13:01;101206.34;;;14.18;100.00
49979;BME280;35869;50.990;6.962;2022-10-16T08:18:03;101205.13;;;14.25;100.00
49979;BME280;35869;50.990;6.962;2022-10-16T08:23:05;101218.53;;;14.19;100.00
49979;BME280;35869;50.990;6.962;2022-10-16T08:28:08;101221.56;;;14.27;100.00
49979;BME280;35869;50.990;6.962;2022-10-16T08:33:08;101229.56;;;14.24;100.00
49979;BME280;35869;50.990;6.962;2022-10-16T08:38:08;101237.50;;;14.23;100.00
49979;BME280;35869;50.990;6.962;2022-10-16T08:48:13;101244.94;;;14.48;100.00
49979;BME280;35869;50.990;6.962;2022-10-16T08:53:19;101254.19;;;14.55;100.00
49979;BME280;35869;50.990;6.962;2022-10-16T08:58:25;101258.72;;;14.51;100.00
49979;BME280;35869;50.990;6.962;2022-10-16T09:03:37;101263.53;;;14.59;100.00
49979;BME280;35869;50.990;6.962;2022-10-16T09:19:30;101272.19;;;14.77;100.00
49979;BME280;35869;50.990;6.962;2022-10-16T09:24:32;101258.44;;;14.73;100.00
49979;BME280;35869;50.990;6.962;2022-10-16T09:29:32;101266.66;;;14.99;100.00
49979;BME280;35869;50.990;6.962;2022-10-16T09:34:36;101269.88;;;15.04;100.00
49979;BME280;35869;50.990;6.962;2022-10-16T09:39:50;101281.09;;;15.06;100.00
49979;BME280;35869;50.990;6.962;2022-10-16T09:44:51;101270.31;;;15.12;99.72
49979;BME280;35869;50.990;6.962;2022-10-16T09:54:57;101286.47;;;15.20;99.46
49979;BME280;35869;50.990;6.962;2022-10-16T09:59:58;101287.41;;;15.19;100.00
49979;BME280;35869;50.990;6.962;2022-10-16T10:04:58;101291.97;;;15.31;100.00
49979;BME280;35869;50.990;6.962;2022-10-16T10:09:59;101277.94;;;15.32;100.00
49979;BME280;35869;50.990;6.962;2022-10-16T10:15:06;101272.94;;;15.43;99.71
49979;BME280;35869;50.990;6.962;2022-10-16T10:35:47;101281.13;;;15.69;98.46
49979;BME280;35869;50.990;6.962;2022-10-16T10:46:45;101285.97;;;16.07;95.52
49979;BME280;35869;50.990;6.962;2022-10-16T10:57:02;101280.38;;;16.27;97.16
49979;BME280;35869;50.990;6.962;2022-10-16T11:07:30;101276.31;;;16.66;95.26
49979;BME280;35869;50.990;6.962;2022-10-16T11:12:40;101277.84;;;16.84;93.83
49979;BME280;35869;50.990;6.962;2022-10-16T11:22:54;101285.31;;;17.04;87.32
49979;BME280;35869;50.990;6.962;2022-10-16T11:49:15;101291.84;;;17.67;79.84
49979;BME280;35869;50.990;6.962;2022-10-16T11:54:24;101301.75;;;17.49;91.45
49979;BME280;35869;50.990;6.962;2022-10-16T11:59:38;101309.16;;;17.57;92.83
49979;BME280;35869;50.990;6.962;2022-10-16T12:04:47;101302.38;;;17.53;95.79
49979;BME280;35869;50.990;6.962;2022-10-16T12:09:51;101301.63;;;17.65;87.71
49979;BME280;35869;50.990;6.962;2022-10-16T12:20:27;101311.09;;;17.68;93.41
49979;BME280;35869;50.990;6.962;2022-10-16T12:25:33;101306.34;;;17.87;88.28
49979;BME280;35869;50.990;6.962;2022-10-16T12:30:35;101300.94;;;18.03;80.38
49979;BME280;35869;50.990;6.962;2022-10-16T12:35:44;101288.31;;;18.08;78.98
49979;BME280;35869;50.990;6.962;2022-10-16T12:40:47;101287.25;;;18.10;79.48
49979;BME280;35869;50.990;6.962;2022-10-16T12:46:18;101273.81;;;18.15;81.07
49979;BME280;35869;50.990;6.962;2022-10-16T13:18:13;101286.91;;;18.55;75.61
49979;BME280;35869;50.990;6.962;2022-10-16T13:28:34;101293.03;;;18.68;77.34
49979;BME280;35869;50.990;6.962;2022-10-16T13:33:42;101293.31;;;18.63;75.37
49979;BME280;35869;50.990;6.962;2022-10-16T13:38:45;101301.19;;;18.63;77.89
49979;BME280;35869;50.990;6.962;2022-10-16T13:43:48;101303.09;;;18.61;86.02
49979;BME280;35869;50.990;6.962;2022-10-16T13:49:10;101299.53;;;18.62;80.46
49979;BME280;35869;50.990;6.962;2022-10-16T13:54:11;101291.00;;;18.59;82.97
49979;BME280;35869;50.990;6.962;2022-10-16T13:59:41;101276.66;;;18.63;81.22
49979;BME280;35869;50.990;6.962;2022-10-16T14:04:41;101297.44;;;18.68;85.21
49979;BME280;35869;50.990;6.962;2022-10-16T14:09:41;101289.34;;;18.71;80.84
49979;BME280;35869;50.990;6.962;2022-10-16T14:14:53;101297.03;;;18.74;84.03
49979;BME280;35869;50.990;6.962;2022-10-16T14:19:56;101309.47;;;18.72;80.38
49979;BME280;35869;50.990;6.962;2022-10-16T14:24:57;101297.25;;;18.71;82.79
49979;BME280;35869;50.990;6.962;2022-10-16T14:30:20;101293.66;;;18.72;82.96
49979;BME280;35869;50.990;6.962;2022-10-16T14:35:32;101285.00;;;18.70;87.81
49979;BME280;35869;50.990;6.962;2022-10-16T14:40:35;101272.59;;;18.72;90.56
49979;BME280;35869;50.990;6.962;2022-10-16T14:45:36;101282.50;;;18.68;90.53
49979;BME280;35869;50.990;6.962;2022-10-16T14:50:36;101289.25;;;18.72;92.03
49979;BME280;35869;50.990;6.962;2022-10-16T14:55:37;101297.03;;;18.74;89.39
49979;BME280;35869;50.990;6.962;2022-10-16T15:00:37;101300.59;;;18.85;86.59
49979;BME280;35869;50.990;6.962;2022-10-16T15:05:38;101297.25;;;18.83;86.21
49979;BME280;35869;50.990;6.962;2022-10-16T15:10:43;101299.94;;;18.82;89.65
49979;BME280;35869;50.990;6.962;2022-10-16T15:15:46;101301.25;;;18.76;94.05
49979;BME280;35869;50.990;6.962;2022-10-16T15:20:48;101295.75;;;18.79;94.64
49979;BME280;35869;50.990;6.962;2022-10-16T15:25:50;101304.91;;;18.74;95.98
49979;BME280;35869;50.990;6.962;2022-10-16T15:30:53;101306.53;;;18.76;93.58
49979;BME280;35869;50.990;6.962;2022-10-16T15:35:54;101301.44;;;18.73;95.42
49979;BME280;35869;50.990;6.962;2022-10-16T15:40:54;101297.66;;;18.64;96.52
49979;BME280;35869;50.990;6.962;2022-10-16T15:46:06;101291.44;;;18.65;96.35
49979;BME280;35869;50.990;6.962;2022-10-16T15:51:07;101290.13;;;18.58;97.25
49979;BME280;35869;50.990;6.962;2022-10-16T15:56:09;101292.56;;;18.61;96.02
49979;BME280;35869;50.990;6.962;2022-10-16T16:01:10;101287.00;;;18.53;96.91
49979;BME280;35869;50.990;6.962;2022-10-16T16:06:12;101275.94;;;18.48;97.15
49979;BME280;35869;50.990;6.962;2022-10-16T16:11:15;101272.56;;;18.46;96.42
49979;BME280;35869;50.990;6.962;2022-10-16T16:16:17;101266.38;;;18.47;94.96
49979;BME280;35869;50.990;6.962;2022-10-16T16:21:17;101276.25;;;18.44;95.30
49979;BME280;35869;50.990;6.962;2022-10-16T16:26:25;101269.09;;;18.33;93.59
49979;BME280;35869;50.990;6.962;2022-10-16T16:31:27;101276.78;;;18.36;94.84
49979;BME280;35869;50.990;6.962;2022-10-16T16:36:27;101289.72;;;18.26;96.15
49979;BME280;35869;50.990;6.962;2022-10-16T16:41:29;101289.91;;;18.23;97.20
49979;BME280;35869;50.990;6.962;2022-10-16T16:46:31;101300.94;;;18.16;97.58
49979;BME280;35869;50.990;6.962;2022-10-16T16:51:33;101308.53;;;18.07;98.37
49979;BME280;35869;50.990;6.962;2022-10-16T16:56:34;101304.41;;;18.03;98.18
49979;BME280;35869;50.990;6.962;2022-10-16T17:01:35;101315.31;;;17.97;98.38
49979;BME280;35869;50.990;6.962;2022-10-16T17:06:35;101314.59;;;17.95;96.82
49979;BME280;35869;50.990;6.962;2022-10-16T17:11:36;101309.34;;;17.95;95.93
49979;BME280;35869;50.990;6.962;2022-10-16T17:16:38;101328.34;;;17.86;97.33
49979;BME280;35869;50.990;6.962;2022-10-16T17:21:38;101330.22;;;17.84;96.32
49979;BME280;35869;50.990;6.962;2022-10-16T17:26:39;101338.59;;;17.76;96.05
49979;BME280;35869;50.990;6.962;2022-10-16T17:31:40;101335.13;;;17.76;96.29
49979;BME280;35869;50.990;6.962;2022-10-16T17:36:40;101336.31;;;17.70;97.11
49979;BME280;35869;50.990;6.962;2022-10-16T17:41:40;101347.25;;;17.64;98.38
49979;BME280;35869;50.990;6.962;2022-10-16T17:46:40;101343.03;;;17.62;95.95
49979;BME280;35869;50.990;6.962;2022-10-16T17:51:41;101348.28;;;17.62;96.95
49979;BME280;35869;50.990;6.962;2022-10-16T17:56:42;101367.81;;;17.57;96.17
49979;BME280;35869;50.990;6.962;2022-10-16T18:01:42;101360.88;;;17.56;95.69
49979;BME280;35869;50.990;6.962;2022-10-16T18:06:43;101358.47;;;17.53;96.83
49979;BME280;35869;50.990;6.962;2022-10-16T18:11:44;101354.13;;;17.52;95.89
49979;BME280;35869;50.990;6.962;2022-10-16T18:16:44;101370.94;;;17.50;98.30
49979;BME280;35869;50.990;6.962;2022-10-16T18:21:45;101378.25;;;17.45;97.17
49979;BME280;35869;50.990;6.962;2022-10-16T18:26:45;101369.53;;;17.44;98.04
49979;BME280;35869;50.990;6.962;2022-10-16T18:31:45;101359.31;;;17.40;97.26
49979;BME280;35869;50.990;6.962;2022-10-16T18:36:45;101368.13;;;17.39;97.38
49979;BME280;35869;50.990;6.962;2022-10-16T18:41:46;101361.38;;;17.35;97.70
49979;BME280;35869;50.990;6.962;2022-10-16T18:46:46;101360.53;;;17.34;97.51
49979;BME280;35869;50.990;6.962;2022-10-16T18:51:46;101366.94;;;17.30;98.26
49979;BME280;35869;50.990;6.962;2022-10-16T18:56:46;101383.53;;;17.30;97.84
49979;BME280;35869;50.990;6.962;2022-10-16T19:01:48;101383.63;;;17.29;98.47
49979;BME280;35869;50.990;6.962;2022-10-16T19:06:51;101386.34;;;17.27;97.87
49979;BME280;35869;50.990;6.962;2022-10-16T19:11:51;101395.34;;;17.23;98.42
49979;BME280;35869;50.990;6.962;2022-10-16T19:16:51;101397.13;;;17.23;98.74
49979;BME280;35869;50.990;6.962;2022-10-16T19:21:52;101408.59;;;17.22;98.62
49979;BME280;35869;50.990;6.962;2022-10-16T19:26:52;101407.94;;;17.18;99.22
49979;BME280;35869;50.990;6.962;2022-10-16T19:31:52;101410.56;;;17.18;98.98
49979;BME280;35869;50.990;6.962;2022-10-16T19:36:52;101413.38;;;17.15;98.92
49979;BME280;35869;50.990;6.962;2022-10-16T19:41:52;101419.66;;;17.13;99.44
49979;BME280;35869;50.990;6.962;2022-10-16T19:46:53;101417.94;;;17.12;99.57
49979;BME280;35869;50.990;6.962;2022-10-16T19:51:53;101422.56;;;17.08;99.03
49979;BME280;35869;50.990;6.962;2022-10-16T19:56:53;101424.41;;;17.06;100.00
49979;BME280;35869;50.990;6.962;2022-10-16T20:01:53;101421.16;;;17.02;100.00
49979;BME280;35869;50.990;6.962;2022-10-16T20:06:54;101432.66;;;17.00;99.99
49979;BME280;35869;50.990;6.962;2022-10-16T20:11:54;101441.75;;;16.94;100.00
49979;BME280;35869;50.990;6.962;2022-10-16T20:16:54;101444.47;;;16.93;99.22
49979;BME280;35869;50.990;6.962;2022-10-16T20:21:55;101442.13;;;16.88;100.00
49979;BME280;35869;50.990;6.962;2022-10-16T20:26:55;101433.69;;;16.83;100.00
49979;BME280;35869;50.990;6.962;2022-10-16T20:31:55;101435.75;;;16.78;100.00
49979;BME280;35869;50.990;6.962;2022-10-16T20:36:55;101440.41;;;16.73;99.68
49979;BME280;35869;50.990;6.962;2022-10-16T20:41:56;101431.00;;;16.69;100.00
49979;BME280;35869;50.990;6.962;2022-10-16T20:46:56;101426.09;;;16.63;100.00
49979;BME280;35869;50.990;6.962;2022-10-16T20:51:56;101425.41;;;16.59;100.00
49979;BME280;35869;50.990;6.962;2022-10-16T20:56:56;101422.16;;;16.56;100.00
49979;BME280;35869;50.990;6.962;2022-10-16T21:01:57;101418.00;;;16.51;100.00
49979;BME280;35869;50.990;6.962;2022-10-16T21:06:57;101422.59;;;16.48;100.00
49979;BME280;35869;50.990;6.962;2022-10-16T21:11:57;101422.06;;;16.41;100.00
49979;BME280;35869;50.990;6.962;2022-10-16T21:16:57;101427.53;;;16.38;100.00
49979;BME280;35869;50.990;6.962;2022-10-16T21:21:58;101427.88;;;16.32;100.00
49979;BME280;35869;50.990;6.962;2022-10-16T21:26:58;101426.34;;;16.28;100.00
49979;BME280;35869;50.990;6.962;2022-10-16T21:31:58;101416.94;;;16.24;100.00
49979;BME280;35869;50.990;6.962;2022-10-16T21:36:58;101420.50;;;16.23;100.00
49979;BME280;35869;50.990;6.962;2022-10-16T21:41:59;101418.06;;;16.20;100.00
49979;BME280;35869;50.990;6.962;2022-10-16T21:46:59;101420.25;;;16.12;100.00
49979;BME280;35869;50.990;6.962;2022-10-16T21:51:59;101419.25;;;16.14;100.00
49979;BME280;35869;50.990;6.962;2022-10-16T21:56:59;101428.22;;;16.10;100.00
49979;BME280;35869;50.990;6.962;2022-10-16T22:01:59;101432.88;;;16.05;100.00
49979;BME280;35869;50.990;6.962;2022-10-16T22:07:00;101431.38;;;16.01;100.00
49979;BME280;35869;50.990;6.962;2022-10-16T22:12:00;101437.88;;;15.94;100.00
49979;BME280;35869;50.990;6.962;2022-10-16T22:17:00;101435.53;;;15.89;100.00
49979;BME280;35869;50.990;6.962;2022-10-16T22:22:00;101420.97;;;15.84;100.00
49979;BME280;35869;50.990;6.962;2022-10-16T22:27:01;101425.69;;;15.77;100.00
49979;BME280;35869;50.990;6.962;2022-10-16T22:32:01;101422.16;;;15.78;100.00
49979;BME280;35869;50.990;6.962;2022-10-16T22:37:01;101424.34;;;15.70;100.00
49979;BME280;35869;50.990;6.962;2022-10-16T22:42:01;101412.16;;;15.69;100.00
49979;BME280;35869;50.990;6.962;2022-10-16T22:47:02;101413.25;;;15.65;100.00
49979;BME280;35869;50.990;6.962;2022-10-16T22:52:02;101413.50;;;15.60;100.00
49979;BME280;35869;50.990;6.962;2022-10-16T22:57:02;101402.31;;;15.57;100.00
49979;BME280;35869;50.990;6.962;2022-10-16T23:02:02;101408.75;;;15.51;100.00
49979;BME280;35869;50.990;6.962;2022-10-16T23:07:03;101417.88;;;15.44;100.00
49979;BME280;35869;50.990;6.962;2022-10-16T23:12:03;101419.19;;;15.35;100.00
49979;BME280;35869;50.990;6.962;2022-10-16T23:17:03;101417.41;;;15.36;100.00
49979;BME280;35869;50.990;6.962;2022-10-16T23:22:03;101422.72;;;15.34;100.00
49979;BME280;35869;50.990;6.962;2022-10-16T23:27:04;101434.16;;;15.33;100.00
49979;BME280;35869;50.990;6.962;2022-10-16T23:32:04;101436.00;;;15.31;100.00
49979;BME280;35869;50.990;6.962;2022-10-16T23:37:04;101433.53;;;15.28;100.00
49979;BME280;35869;50.990;6.962;2022-10-16T23:42:04;101437.94;;;15.28;100.00
49979;BME280;35869;50.990;6.962;2022-10-16T23:47:05;101438.94;;;15.25;100.00
49979;BME280;35869;50.990;6.962;2022-10-16T23:52:05;101436.94;;;15.30;100.00
49979;BME280;35869;50.990;6.962;2022-10-16T23:57:05;101443.69;;;15.34;100.00
